TAF KBKE
KBKE 280520Z 2806/2906 VRB04KT P6SM BKN050=
METAR KBKE
WC KBKE
WS KBKE
WV KBKE